PWSweather.com
Personal Weather Stations
Station Observations
RIORANCHO
Corrales Heights, Rio Rancho, NM 87124

Corrales HeightsRio Rancho, NM 87124

Lat: 35.241928, Lon: -106.647095

Elevation: 5297

Station Type: Davis Vantage Pro 2 Plus

http://www.weatherriorancho.com

High Low Average
Temperature 59.7°F15.4°C 24.3°F-4.3°C 40.4°F4.7°C
Dew Point 26.4°F-3.1°C 17.3°F-8.2°C 22.2°F-5.4°C
Winds 13.8 mph 22.2 kmh Calm Calm 2.0 mph WNW3.2 kmh WNW
Wind Gusts 21.9 mph35.2 kmh -- 4.0 mph6.4 kmh
Humidity 76% 27% 51%
Pressure 30.36 in1028.1 mb 30.17 in1021.7 mb -
Precipitation 0.00 in0.0 mm - -
Hour Temp Dew Point Humidity Winds Wind Gusts Pressure Precip Precip Rate Daily Precip Total
12:00 AM 35.3°F1.8°C 20.7°F-6.3°C 55% 1.2 mph WNW1.9 kmh WNW 3.5 mph5.6 kmh 30.29 in1025.7 mb - 0.00 in0.0 mm 0.00 in0.0 mm
12:10 AM 35.0°F1.7°C 20.4°F-6.4°C 55% Calm Calm 2.3 mph3.7 kmh 30.29 in1025.7 mb - 0.00 in0.0 mm 0.00 in0.0 mm
12:20 AM 34.8°F1.6°C 20.3°F-6.5°C 55% Calm Calm 1.2 mph1.9 kmh 30.28 in1025.4 mb - 0.00 in0.0 mm 0.00 in0.0 mm
12:30 AM 34.5°F1.4°C 20.4°F-6.4°C 56% Calm Calm 1.2 mph1.9 kmh 30.28 in1025.4 mb - 0.00 in0.0 mm 0.00 in0.0 mm
12:40 AM 34.3°F1.3°C 20.6°F-6.3°C 57% Calm Calm 1.2 mph1.9 kmh 30.27 in1025.1 mb - 0.00 in0.0 mm 0.00 in0.0 mm
12:50 AM 34.3°F1.3°C 20.6°F-6.3°C 57% 1.2 mph WNW1.9 kmh WNW 3.5 mph5.6 kmh 30.27 in1025.1 mb - 0.00 in0.0 mm 0.00 in0.0 mm
01:00 AM 34.2°F1.2°C 20.5°F-6.4°C 57% Calm Calm -- 30.26 in1024.7 mb - 0.00 in0.0 mm 0.00 in0.0 mm
01:10 AM 33.7°F0.9°C 20.5°F-6.4°C 58% Calm Calm -- 30.25 in1024.4 mb - 0.00 in0.0 mm 0.00 in0.0 mm
01:20 AM 33.4°F0.8°C 20.6°F-6.3°C 59% 1.2 mph WNW1.9 kmh WNW 2.3 mph3.7 kmh 30.25 in1024.4 mb - 0.00 in0.0 mm 0.00 in0.0 mm
01:30 AM 33.4°F0.8°C 20.6°F-6.3°C 59% 4.6 mph WNW7.4 kmh WNW 6.9 mph11.1 kmh 30.25 in1024.4 mb - 0.00 in0.0 mm 0.00 in0.0 mm
01:40 AM 33.2°F0.7°C 20.8°F-6.2°C 60% 2.3 mph WNW3.7 kmh WNW 5.8 mph9.3 kmh 30.25 in1024.4 mb - 0.00 in0.0 mm 0.00 in0.0 mm
01:50 AM 32.8°F0.4°C 20.4°F-6.4°C 60% 1.2 mph WNW1.9 kmh WNW 3.5 mph5.6 kmh 30.25 in1024.4 mb - 0.00 in0.0 mm 0.00 in0.0 mm
02:00 AM 32.1°F0.1°C 20.2°F-6.6°C 61% 1.2 mph WNW1.9 kmh WNW 3.5 mph5.6 kmh 30.25 in1024.4 mb - 0.00 in0.0 mm 0.00 in0.0 mm
02:10 AM 31.7°F-0.2°C 20.1°F-6.6°C 62% Calm Calm 2.3 mph3.7 kmh 30.25 in1024.4 mb - 0.00 in0.0 mm 0.00 in0.0 mm
02:20 AM 31.3°F-0.4°C 20.2°F-6.6°C 63% 1.2 mph WNW1.9 kmh WNW 3.5 mph5.6 kmh 30.25 in1024.4 mb - 0.00 in0.0 mm 0.00 in0.0 mm
02:30 AM 31.0°F-0.6°C 20.2°F-6.6°C 64% 3.5 mph WNW5.6 kmh WNW 5.8 mph9.3 kmh 30.25 in1024.4 mb - 0.00 in0.0 mm 0.00 in0.0 mm
02:40 AM 30.8°F-0.7°C 20.4°F-6.4°C 65% 1.2 mph WNW1.9 kmh WNW 2.3 mph3.7 kmh 30.26 in1024.7 mb - 0.00 in0.0 mm 0.00 in0.0 mm
02:50 AM 30.7°F-0.7°C 20.3°F-6.5°C 65% Calm Calm 1.2 mph1.9 kmh 30.25 in1024.4 mb - 0.00 in0.0 mm 0.00 in0.0 mm
03:00 AM 30.5°F-0.8°C 20.1°F-6.6°C 65% Calm Calm -- 30.25 in1024.4 mb - 0.00 in0.0 mm 0.00 in0.0 mm
03:10 AM 30.2°F-1.0°C 19.8°F-6.8°C 65% Calm Calm -- 30.25 in1024.4 mb - 0.00 in0.0 mm 0.00 in0.0 mm
03:20 AM 29.9°F-1.2°C 19.9°F-6.7°C 66% Calm Calm 1.2 mph1.9 kmh 30.25 in1024.4 mb - 0.00 in0.0 mm 0.00 in0.0 mm
03:30 AM 30.0°F-1.1°C 20.0°F-6.7°C 66% 1.2 mph WNW1.9 kmh WNW 1.2 mph1.9 kmh 30.25 in1024.4 mb - 0.00 in0.0 mm 0.00 in0.0 mm
03:40 AM 29.9°F-1.2°C 19.9°F-6.7°C 66% 1.2 mph WNW1.9 kmh WNW 2.3 mph3.7 kmh 30.25 in1024.4 mb - 0.00 in0.0 mm 0.00 in0.0 mm
03:50 AM 29.8°F-1.2°C 19.5°F-6.9°C 65% Calm Calm -- 30.25 in1024.4 mb - 0.00 in0.0 mm 0.00 in0.0 mm
04:00 AM 29.7°F-1.3°C 19.7°F-6.8°C 66% 1.2 mph WNW1.9 kmh WNW 4.6 mph7.4 kmh 30.25 in1024.4 mb - 0.00 in0.0 mm 0.00 in0.0 mm
04:10 AM 30.0°F-1.1°C 19.7°F-6.8°C 65% Calm Calm -- 30.25 in1024.4 mb - 0.00 in0.0 mm 0.00 in0.0 mm
04:20 AM 29.8°F-1.2°C 19.5°F-6.9°C 65% Calm Calm -- 30.25 in1024.4 mb - 0.00 in0.0 mm 0.00 in0.0 mm
04:30 AM 29.3°F-1.5°C 19.3°F-7.1°C 66% Calm Calm 1.2 mph1.9 kmh 30.25 in1024.4 mb - 0.00 in0.0 mm 0.00 in0.0 mm
04:40 AM 28.9°F-1.7°C 19.3°F-7.1°C 67% Calm Calm 2.3 mph3.7 kmh 30.25 in1024.4 mb - 0.00 in0.0 mm 0.00 in0.0 mm
04:50 AM 28.7°F-1.8°C 19.1°F-7.2°C 67% Calm Calm -- 30.25 in1024.4 mb - 0.00 in0.0 mm 0.00 in0.0 mm
05:00 AM 28.5°F-1.9°C 19.3°F-7.1°C 68% Calm Calm -- 30.25 in1024.4 mb - 0.00 in0.0 mm 0.00 in0.0 mm
05:10 AM 28.3°F-2.1°C 19.1°F-7.2°C 68% Calm Calm -- 30.25 in1024.4 mb - 0.00 in0.0 mm 0.00 in0.0 mm
05:20 AM 28.1°F-2.2°C 18.9°F-7.3°C 68% Calm Calm -- 30.25 in1024.4 mb - 0.00 in0.0 mm 0.00 in0.0 mm
05:30 AM 27.9°F-2.3°C 19.0°F-7.2°C 69% Calm Calm -- 30.25 in1024.4 mb - 0.00 in0.0 mm 0.00 in0.0 mm
05:40 AM 27.6°F-2.4°C 18.8°F-7.3°C 69% Calm Calm -- 30.25 in1024.4 mb - 0.00 in0.0 mm 0.00 in0.0 mm
05:50 AM 27.5°F-2.5°C 19.0°F-7.2°C 70% Calm Calm -- 30.25 in1024.4 mb - 0.00 in0.0 mm 0.00 in0.0 mm
06:00 AM 27.1°F-2.7°C 18.6°F-7.4°C 70% Calm Calm -- 30.25 in1024.4 mb - 0.00 in0.0 mm 0.00 in0.0 mm
06:10 AM 27.0°F-2.8°C 18.5°F-7.5°C 70% Calm Calm -- 30.25 in1024.4 mb - 0.00 in0.0 mm 0.00 in0.0 mm
06:20 AM 27.0°F-2.8°C 18.8°F-7.3°C 71% Calm Calm 1.2 mph1.9 kmh 30.25 in1024.4 mb - 0.00 in0.0 mm 0.00 in0.0 mm
06:30 AM 26.9°F-2.8°C 18.7°F-7.4°C 71% Calm Calm -- 30.25 in1024.4 mb - 0.00 in0.0 mm 0.00 in0.0 mm
06:40 AM 26.7°F-2.9°C 18.6°F-7.4°C 71% Calm Calm -- 30.25 in1024.4 mb - 0.00 in0.0 mm 0.00 in0.0 mm
06:50 AM 26.7°F-2.9°C 18.5°F-7.5°C 71% Calm Calm -- 30.25 in1024.4 mb - 0.00 in0.0 mm 0.00 in0.0 mm
07:00 AM 26.5°F-3.1°C 18.7°F-7.4°C 72% Calm Calm -- 30.25 in1024.4 mb - 0.00 in0.0 mm 0.00 in0.0 mm
07:10 AM 26.0°F-3.3°C 18.2°F-7.7°C 72% Calm Calm -- 30.25 in1024.4 mb - 0.00 in0.0 mm 0.00 in0.0 mm
07:20 AM 25.6°F-3.6°C 17.8°F-7.9°C 72% Calm Calm -- 30.25 in1024.4 mb - 0.00 in0.0 mm 0.00 in0.0 mm
07:30 AM 25.3°F-3.7°C 17.5°F-8.1°C 72% Calm Calm -- 30.26 in1024.7 mb - 0.00 in0.0 mm 0.00 in0.0 mm
07:40 AM 25.1°F-3.8°C 17.3°F-8.2°C 72% Calm Calm -- 30.25 in1024.4 mb - 0.00 in0.0 mm 0.00 in0.0 mm
07:50 AM 24.9°F-3.9°C 17.5°F-8.1°C 73% Calm Calm -- 30.25 in1024.4 mb - 0.00 in0.0 mm 0.00 in0.0 mm
08:00 AM 24.7°F-4.1°C 17.3°F-8.2°C 73% Calm Calm -- 30.25 in1024.4 mb - 0.00 in0.0 mm 0.00 in0.0 mm
08:10 AM 24.5°F-4.2°C 17.4°F-8.1°C 74% Calm Calm -- 30.25 in1024.4 mb - 0.00 in0.0 mm 0.00 in0.0 mm
08:20 AM 24.4°F-4.2°C 17.3°F-8.2°C 74% Calm Calm -- 30.25 in1024.4 mb - 0.00 in0.0 mm 0.00 in0.0 mm
08:30 AM 24.3°F-4.3°C 17.5°F-8.1°C 75% Calm Calm -- 30.26 in1024.7 mb - 0.00 in0.0 mm 0.00 in0.0 mm
08:40 AM 24.3°F-4.3°C 17.5°F-8.1°C 75% Calm Calm -- 30.26 in1024.7 mb - 0.00 in0.0 mm 0.00 in0.0 mm
08:50 AM 24.9°F-3.9°C 18.4°F-7.6°C 76% Calm Calm -- 30.26 in1024.7 mb - 0.00 in0.0 mm 0.00 in0.0 mm
09:00 AM 25.5°F-3.6°C 19.0°F-7.2°C 76% Calm Calm -- 30.25 in1024.4 mb - 0.00 in0.0 mm 0.00 in0.0 mm
09:10 AM 27.1°F-2.7°C 19.9°F-6.7°C 74% Calm Calm -- 30.26 in1024.7 mb - 0.00 in0.0 mm 0.00 in0.0 mm
09:20 AM 28.2°F-2.1°C 20.0°F-6.7°C 71% Calm Calm -- 30.26 in1024.7 mb - 0.00 in0.0 mm 0.00 in0.0 mm
09:30 AM 29.5°F-1.4°C 20.5°F-6.4°C 69% Calm Calm -- 30.25 in1024.4 mb - 0.00 in0.0 mm 0.00 in0.0 mm
09:40 AM 30.8°F-0.7°C 20.7°F-6.3°C 66% Calm Calm -- 30.26 in1024.7 mb - 0.00 in0.0 mm 0.00 in0.0 mm
09:50 AM 32.0°F0.0°C 21.2°F-6.0°C 64% Calm Calm -- 30.26 in1024.7 mb - 0.00 in0.0 mm 0.00 in0.0 mm
10:00 AM 33.1°F0.6°C 21.9°F-5.6°C 63% Calm Calm -- 30.27 in1025.1 mb - 0.00 in0.0 mm 0.00 in0.0 mm
10:10 AM 33.9°F1.1°C 21.1°F-6.1°C 59% Calm Calm -- 30.27 in1025.1 mb - 0.00 in0.0 mm 0.00 in0.0 mm
10:20 AM 35.6°F2.0°C 22.3°F-5.4°C 58% Calm Calm -- 30.27 in1025.1 mb - 0.00 in0.0 mm 0.00 in0.0 mm
10:30 AM 36.2°F2.3°C 22.0°F-5.6°C 56% Calm Calm -- 30.27 in1025.1 mb - 0.00 in0.0 mm 0.00 in0.0 mm
10:40 AM 36.9°F2.7°C 21.8°F-5.7°C 54% Calm Calm -- 30.27 in1025.1 mb - 0.00 in0.0 mm 0.00 in0.0 mm
10:50 AM 37.4°F3.0°C 21.8°F-5.7°C 53% Calm Calm -- 30.28 in1025.4 mb - 0.00 in0.0 mm 0.00 in0.0 mm
11:00 AM 37.9°F3.3°C 22.3°F-5.4°C 53% Calm Calm -- 30.28 in1025.4 mb - 0.00 in0.0 mm 0.00 in0.0 mm
11:10 AM 38.7°F3.7°C 22.6°F-5.2°C 52% Calm Calm -- 30.28 in1025.4 mb - 0.00 in0.0 mm 0.00 in0.0 mm
11:20 AM 40.3°F4.6°C 22.7°F-5.2°C 49% Calm Calm -- 30.28 in1025.4 mb - 0.00 in0.0 mm 0.00 in0.0 mm
11:30 AM 41.6°F5.3°C 22.9°F-5.1°C 47% Calm Calm -- 30.27 in1025.1 mb - 0.00 in0.0 mm 0.00 in0.0 mm
11:40 AM 42.9°F6.1°C 23.0°F-5.0°C 45% Calm Calm -- 30.28 in1025.4 mb - 0.00 in0.0 mm 0.00 in0.0 mm
11:50 AM 43.2°F6.2°C 23.3°F-4.8°C 45% Calm Calm -- 30.27 in1025.1 mb - 0.00 in0.0 mm 0.00 in0.0 mm
12:00 PM 44.0°F6.7°C 22.9°F-5.1°C 43% Calm Calm -- 30.27 in1025.1 mb - 0.00 in0.0 mm 0.00 in0.0 mm
12:10 PM 44.7°F7.1°C 23.0°F-5.0°C 42% Calm Calm 3.5 mph5.6 kmh 30.26 in1024.7 mb - 0.00 in0.0 mm 0.00 in0.0 mm
12:20 PM 46.0°F7.8°C 23.6°F-4.7°C 41% Calm Calm 2.3 mph3.7 kmh 30.25 in1024.4 mb - 0.00 in0.0 mm 0.00 in0.0 mm
12:30 PM 46.6°F8.1°C 22.9°F-5.1°C 39% 1.2 mph WSW1.9 kmh WSW 3.5 mph5.6 kmh 30.24 in1024.0 mb - 0.00 in0.0 mm 0.00 in0.0 mm
12:40 PM 47.7°F8.7°C 23.3°F-4.8°C 38% Calm Calm 2.3 mph3.7 kmh 30.24 in1024.0 mb - 0.00 in0.0 mm 0.00 in0.0 mm
12:50 PM 48.3°F9.1°C 23.2°F-4.9°C 37% Calm Calm -- 30.23 in1023.7 mb - 0.00 in0.0 mm 0.00 in0.0 mm
01:00 PM 48.7°F9.3°C 23.5°F-4.7°C 37% 1.2 mph SW1.9 kmh SW 3.5 mph5.6 kmh 30.23 in1023.7 mb - 0.00 in0.0 mm 0.00 in0.0 mm
01:10 PM 49.7°F9.8°C 24.4°F-4.2°C 37% Calm Calm 1.2 mph1.9 kmh 30.22 in1023.4 mb - 0.00 in0.0 mm 0.00 in0.0 mm
01:20 PM 51.0°F10.6°C 23.6°F-4.7°C 34% Calm Calm -- 30.22 in1023.4 mb - 0.00 in0.0 mm 0.00 in0.0 mm
01:30 PM 51.4°F10.8°C 23.2°F-4.9°C 33% Calm Calm -- 30.21 in1023.0 mb - 0.00 in0.0 mm 0.00 in0.0 mm
01:40 PM 51.9°F11.1°C 23.7°F-4.6°C 33% Calm Calm 3.5 mph5.6 kmh 30.20 in1022.7 mb - 0.00 in0.0 mm 0.00 in0.0 mm
01:50 PM 51.0°F10.6°C 23.6°F-4.7°C 34% Calm Calm -- 30.20 in1022.7 mb - 0.00 in0.0 mm 0.00 in0.0 mm
02:00 PM 52.5°F11.4°C 23.5°F-4.7°C 32% Calm Calm -- 30.20 in1022.7 mb - 0.00 in0.0 mm 0.00 in0.0 mm
02:10 PM 53.1°F11.7°C 24.0°F-4.4°C 32% Calm Calm -- 30.19 in1022.4 mb - 0.00 in0.0 mm 0.00 in0.0 mm
02:20 PM 55.5°F13.1°C 24.5°F-4.2°C 30% Calm Calm -- 30.19 in1022.4 mb - 0.00 in0.0 mm 0.00 in0.0 mm
02:30 PM 54.4°F12.4°C 24.4°F-4.2°C 31% Calm Calm 2.3 mph3.7 kmh 30.18 in1022.0 mb - 0.00 in0.0 mm 0.00 in0.0 mm
02:40 PM 54.0°F12.2°C 24.8°F-4.0°C 32% 1.2 mph SSW1.9 kmh SSW 1.2 mph1.9 kmh 30.18 in1022.0 mb - 0.00 in0.0 mm 0.00 in0.0 mm
02:50 PM 55.0°F12.8°C 24.8°F-4.0°C 31% Calm Calm -- 30.18 in1022.0 mb - 0.00 in0.0 mm 0.00 in0.0 mm
03:00 PM 58.6°F14.8°C 26.4°F-3.1°C 29% 1.2 mph W1.9 kmh W 5.8 mph9.3 kmh 30.18 in1022.0 mb - 0.00 in0.0 mm 0.00 in0.0 mm
03:10 PM 59.7°F15.4°C 25.6°F-3.6°C 27% 8.1 mph WNW13.0 kmh WNW 15.0 mph24.1 kmh 30.18 in1022.0 mb - 0.00 in0.0 mm 0.00 in0.0 mm
03:20 PM 58.9°F14.9°C 25.9°F-3.4°C 28% 6.9 mph W11.1 kmh W 12.7 mph20.4 kmh 30.17 in1021.7 mb - 0.00 in0.0 mm 0.00 in0.0 mm
03:30 PM 58.5°F14.7°C 25.5°F-3.6°C 28% 11.5 mph WNW18.5 kmh WNW 16.1 mph25.9 kmh 30.17 in1021.7 mb - 0.00 in0.0 mm 0.00 in0.0 mm
03:40 PM 58.4°F14.7°C 25.4°F-3.7°C 28% 9.2 mph WNW14.8 kmh WNW 18.4 mph29.6 kmh 30.17 in1021.7 mb - 0.00 in0.0 mm 0.00 in0.0 mm
03:50 PM 58.4°F14.7°C 25.4°F-3.7°C 28% 9.2 mph WNW14.8 kmh WNW 19.6 mph31.5 kmh 30.18 in1022.0 mb - 0.00 in0.0 mm 0.00 in0.0 mm
04:00 PM 57.4°F14.1°C 24.5°F-4.2°C 28% 12.7 mph WNW20.4 kmh WNW 20.7 mph33.3 kmh 30.18 in1022.0 mb - 0.00 in0.0 mm 0.00 in0.0 mm
04:10 PM 57.6°F14.2°C 24.7°F-4.1°C 28% 12.7 mph WNW20.4 kmh WNW 17.3 mph27.8 kmh 30.19 in1022.4 mb - 0.00 in0.0 mm 0.00 in0.0 mm
04:20 PM 57.1°F13.9°C 23.4°F-4.8°C 27% 11.5 mph NW18.5 kmh NW 21.9 mph35.2 kmh 30.19 in1022.4 mb - 0.00 in0.0 mm 0.00 in0.0 mm
04:30 PM 56.6°F13.7°C 23.0°F-5.0°C 27% 13.8 mph W22.2 kmh W 19.6 mph31.5 kmh 30.19 in1022.4 mb - 0.00 in0.0 mm 0.00 in0.0 mm
04:40 PM 56.2°F13.4°C 23.5°F-4.7°C 28% 6.9 mph WNW11.1 kmh WNW 13.8 mph22.2 kmh 30.20 in1022.7 mb - 0.00 in0.0 mm 0.00 in0.0 mm
04:50 PM 56.1°F13.4°C 22.5°F-5.3°C 27% 11.5 mph W18.5 kmh W 19.6 mph31.5 kmh 30.20 in1022.7 mb - 0.00 in0.0 mm 0.00 in0.0 mm
05:00 PM 55.4°F13.0°C 22.8°F-5.1°C 28% 10.4 mph W16.7 kmh W 15.0 mph24.1 kmh 30.20 in1022.7 mb - 0.00 in0.0 mm 0.00 in0.0 mm
05:10 PM 55.6°F13.1°C 22.1°F-5.5°C 27% 9.2 mph WNW14.8 kmh WNW 17.3 mph27.8 kmh 30.21 in1023.0 mb - 0.00 in0.0 mm 0.00 in0.0 mm
05:20 PM 54.9°F12.7°C 22.3°F-5.4°C 28% 2.3 mph NNW3.7 kmh NNW 12.7 mph20.4 kmh 30.21 in1023.0 mb - 0.00 in0.0 mm 0.00 in0.0 mm
05:30 PM 53.5°F11.9°C 22.8°F-5.1°C 30% 5.8 mph NNW9.3 kmh NNW 10.4 mph16.7 kmh 30.22 in1023.4 mb - 0.00 in0.0 mm 0.00 in0.0 mm
05:40 PM 52.9°F11.6°C 23.0°F-5.0°C 31% 6.9 mph NW11.1 kmh NW 10.4 mph16.7 kmh 30.23 in1023.7 mb - 0.00 in0.0 mm 0.00 in0.0 mm
05:50 PM 52.4°F11.3°C 23.4°F-4.8°C 32% 6.9 mph NW11.1 kmh NW 9.2 mph14.8 kmh 30.23 in1023.7 mb - 0.00 in0.0 mm 0.00 in0.0 mm
06:00 PM 52.0°F11.1°C 23.7°F-4.6°C 33% 3.5 mph NW5.6 kmh NW 5.8 mph9.3 kmh 30.23 in1023.7 mb - 0.00 in0.0 mm 0.00 in0.0 mm
06:10 PM 51.4°F10.8°C 24.0°F-4.4°C 34% 4.6 mph WNW7.4 kmh WNW 11.5 mph18.5 kmh 30.24 in1024.0 mb - 0.00 in0.0 mm 0.00 in0.0 mm
06:20 PM 50.9°F10.5°C 24.2°F-4.3°C 35% 6.9 mph NW11.1 kmh NW 13.8 mph22.2 kmh 30.24 in1024.0 mb - 0.00 in0.0 mm 0.00 in0.0 mm
06:30 PM 50.4°F10.2°C 24.4°F-4.2°C 36% Calm Calm -- 30.24 in1024.0 mb - 0.00 in0.0 mm 0.00 in0.0 mm
06:40 PM 50.0°F10.0°C 24.7°F-4.1°C 37% Calm Calm -- 30.25 in1024.4 mb - 0.00 in0.0 mm 0.00 in0.0 mm
06:50 PM 49.6°F9.8°C 24.4°F-4.2°C 37% Calm Calm -- 30.26 in1024.7 mb - 0.00 in0.0 mm 0.00 in0.0 mm
07:00 PM 49.0°F9.4°C 25.1°F-3.8°C 39% 2.3 mph NW3.7 kmh NW 9.2 mph14.8 kmh 30.26 in1024.7 mb - 0.00 in0.0 mm 0.00 in0.0 mm
07:10 PM 48.9°F9.4°C 25.0°F-3.9°C 39% 5.8 mph NW9.3 kmh NW 9.2 mph14.8 kmh 30.27 in1025.1 mb - 0.00 in0.0 mm 0.00 in0.0 mm
07:20 PM 49.0°F9.4°C 24.5°F-4.2°C 38% 8.1 mph NW13.0 kmh NW 9.2 mph14.8 kmh 30.27 in1025.1 mb - 0.00 in0.0 mm 0.00 in0.0 mm
07:30 PM 48.7°F9.3°C 24.8°F-4.0°C 39% 5.8 mph NW9.3 kmh NW 10.4 mph16.7 kmh 30.27 in1025.1 mb - 0.00 in0.0 mm 0.00 in0.0 mm
07:40 PM 48.2°F9.0°C 24.4°F-4.2°C 39% 1.2 mph NW1.9 kmh NW 2.3 mph3.7 kmh 30.28 in1025.4 mb - 0.00 in0.0 mm 0.00 in0.0 mm
07:50 PM 47.7°F8.7°C 24.5°F-4.2°C 40% Calm Calm 3.5 mph5.6 kmh 30.29 in1025.7 mb - 0.00 in0.0 mm 0.00 in0.0 mm
08:00 PM 47.2°F8.4°C 24.7°F-4.1°C 41% Calm Calm 5.8 mph9.3 kmh 30.30 in1026.1 mb - 0.00 in0.0 mm 0.00 in0.0 mm
08:10 PM 46.9°F8.3°C 25.0°F-3.9°C 42% 5.8 mph WNW9.3 kmh WNW 11.5 mph18.5 kmh 30.30 in1026.1 mb - 0.00 in0.0 mm 0.00 in0.0 mm
08:20 PM 46.7°F8.2°C 24.8°F-4.0°C 42% 8.1 mph W13.0 kmh W 11.5 mph18.5 kmh 30.29 in1025.7 mb - 0.00 in0.0 mm 0.00 in0.0 mm
08:30 PM 46.3°F7.9°C 25.0°F-3.9°C 43% 3.5 mph W5.6 kmh W 10.4 mph16.7 kmh 30.29 in1025.7 mb - 0.00 in0.0 mm 0.00 in0.0 mm
08:40 PM 45.9°F7.7°C 24.6°F-4.1°C 43% 3.5 mph W5.6 kmh W 13.8 mph22.2 kmh 30.28 in1025.4 mb - 0.00 in0.0 mm 0.00 in0.0 mm
08:50 PM 45.7°F7.6°C 25.0°F-3.9°C 44% 4.6 mph W7.4 kmh W 12.7 mph20.4 kmh 30.29 in1025.7 mb - 0.00 in0.0 mm 0.00 in0.0 mm
09:00 PM 45.4°F7.4°C 24.7°F-4.1°C 44% 4.6 mph W7.4 kmh W 11.5 mph18.5 kmh 30.28 in1025.4 mb - 0.00 in0.0 mm 0.00 in0.0 mm
09:10 PM 45.1°F7.3°C 25.0°F-3.9°C 45% 1.2 mph NNW1.9 kmh NNW 4.6 mph7.4 kmh 30.29 in1025.7 mb - 0.00 in0.0 mm 0.00 in0.0 mm
09:20 PM 44.4°F6.9°C 24.9°F-3.9°C 46% 3.5 mph WNW5.6 kmh WNW 8.1 mph13.0 kmh 30.30 in1026.1 mb - 0.00 in0.0 mm 0.00 in0.0 mm
09:30 PM 43.9°F6.6°C 24.4°F-4.2°C 46% 2.3 mph NW3.7 kmh NW 5.8 mph9.3 kmh 30.30 in1026.1 mb - 0.00 in0.0 mm 0.00 in0.0 mm
09:40 PM 43.5°F6.4°C 24.6°F-4.1°C 47% 1.2 mph NW1.9 kmh NW 3.5 mph5.6 kmh 30.30 in1026.1 mb - 0.00 in0.0 mm 0.00 in0.0 mm
09:50 PM 43.6°F6.4°C 24.6°F-4.1°C 47% 5.8 mph NW9.3 kmh NW 6.9 mph11.1 kmh 30.30 in1026.1 mb - 0.00 in0.0 mm 0.00 in0.0 mm
10:00 PM 43.3°F6.3°C 24.4°F-4.2°C 47% 3.5 mph NW5.6 kmh NW 6.9 mph11.1 kmh 30.30 in1026.1 mb - 0.00 in0.0 mm 0.00 in0.0 mm
10:10 PM 42.8°F6.0°C 24.9°F-3.9°C 49% 4.6 mph N7.4 kmh N 8.1 mph13.0 kmh 30.32 in1026.8 mb - 0.00 in0.0 mm 0.00 in0.0 mm
10:20 PM 42.9°F6.1°C 25.0°F-3.9°C 49% 5.8 mph NW9.3 kmh NW 10.4 mph16.7 kmh 30.32 in1026.8 mb - 0.00 in0.0 mm 0.00 in0.0 mm
10:30 PM 43.1°F6.2°C 25.2°F-3.8°C 49% 4.6 mph NW7.4 kmh NW 6.9 mph11.1 kmh 30.32 in1026.8 mb - 0.00 in0.0 mm 0.00 in0.0 mm
10:40 PM 43.4°F6.3°C 25.0°F-3.9°C 48% 2.3 mph NW3.7 kmh NW 5.8 mph9.3 kmh 30.33 in1027.1 mb - 0.00 in0.0 mm 0.00 in0.0 mm
10:50 PM 43.5°F6.4°C 25.1°F-3.8°C 48% 5.8 mph NNE9.3 kmh NNE 6.9 mph11.1 kmh 30.33 in1027.1 mb - 0.00 in0.0 mm 0.00 in0.0 mm
11:00 PM 42.8°F6.0°C 24.9°F-3.9°C 49% 6.9 mph N11.1 kmh N 16.1 mph25.9 kmh 30.34 in1027.4 mb - 0.00 in0.0 mm 0.00 in0.0 mm
11:10 PM 43.4°F6.3°C 25.5°F-3.6°C 49% 4.6 mph NNW7.4 kmh NNW 8.1 mph13.0 kmh 30.34 in1027.4 mb - 0.00 in0.0 mm 0.00 in0.0 mm
11:20 PM 43.0°F6.1°C 25.1°F-3.8°C 49% Calm Calm -- 30.35 in1027.8 mb - 0.00 in0.0 mm 0.00 in0.0 mm
11:30 PM 42.2°F5.7°C 24.9°F-3.9°C 50% Calm Calm 1.2 mph1.9 kmh 30.36 in1028.1 mb - 0.00 in0.0 mm 0.00 in0.0 mm
11:40 PM 41.6°F5.3°C 24.3°F-4.3°C 50% Calm Calm 1.2 mph1.9 kmh 30.36 in1028.1 mb - 0.00 in0.0 mm 0.00 in0.0 mm
11:50 PM 40.5°F4.7°C 24.2°F-4.3°C 52% Calm Calm 2.3 mph3.7 kmh 30.36 in1028.1 mb - 0.00 in0.0 mm 0.00 in0.0 mm